sensor_id;sensor_type;location;lat;lon;timestamp;temperature;humidity
51613;DHT22;37694;51.748;14.326;2023-09-19T00:01:32;21.90;49.20
51613;DHT22;37694;51.748;14.326;2023-09-19T00:03:58;22.00;48.70
51613;DHT22;37694;51.748;14.326;2023-09-19T00:06:23;22.00;50.60
51613;DHT22;37694;51.748;14.326;2023-09-19T00:08:51;21.90;50.20
51613;DHT22;37694;51.748;14.326;2023-09-19T00:11:17;21.80;50.60
51613;DHT22;37694;51.748;14.326;2023-09-19T00:13:43;21.70;51.90
51613;DHT22;37694;51.748;14.326;2023-09-19T00:16:10;21.50;51.10
51613;DHT22;37694;51.748;14.326;2023-09-19T00:18:37;21.50;51.20
51613;DHT22;37694;51.748;14.326;2023-09-19T00:21:03;21.50;51.50
51613;DHT22;37694;51.748;14.326;2023-09-19T00:23:30;21.70;52.90
51613;DHT22;37694;51.748;14.326;2023-09-19T00:26:00;21.70;51.60
51613;DHT22;37694;51.748;14.326;2023-09-19T00:28:26;21.90;50.60
51613;DHT22;37694;51.748;14.326;2023-09-19T00:30:52;21.90;50.10
51613;DHT22;37694;51.748;14.326;2023-09-19T00:33:21;22.00;49.60
51613;DHT22;37694;51.748;14.326;2023-09-19T00:35:54;22.00;51.70
51613;DHT22;37694;51.748;14.326;2023-09-19T00:38:21;21.90;50.70
51613;DHT22;37694;51.748;14.326;2023-09-19T00:40:48;21.80;50.10
51613;DHT22;37694;51.748;14.326;2023-09-19T00:43:15;21.50;50.20
51613;DHT22;37694;51.748;14.326;2023-09-19T00:45:43;21.40;50.20
51613;DHT22;37694;51.748;14.326;2023-09-19T00:48:09;21.30;50.00
51613;DHT22;37694;51.748;14.326;2023-09-19T00:50:36;21.20;50.40
51613;DHT22;37694;51.748;14.326;2023-09-19T00:53:02;21.40;50.90
51613;DHT22;37694;51.748;14.326;2023-09-19T00:55:47;21.50;50.60
51613;DHT22;37694;51.748;14.326;2023-09-19T00:58:13;21.50;51.20
51613;DHT22;37694;51.748;14.326;2023-09-19T01:00:40;21.60;51.10
51613;DHT22;37694;51.748;14.326;2023-09-19T01:03:06;21.70;52.20
51613;DHT22;37694;51.748;14.326;2023-09-19T01:05:33;21.80;50.80
51613;DHT22;37694;51.748;14.326;2023-09-19T01:07:59;21.90;50.40
51613;DHT22;37694;51.748;14.326;2023-09-19T01:10:25;21.90;49.70
51613;DHT22;37694;51.748;14.326;2023-09-19T01:16:17;22.00;51.60
51613;DHT22;37694;51.748;14.326;2023-09-19T01:22:00;21.90;51.10
51613;DHT22;37694;51.748;14.326;2023-09-19T01:30:43;22.00;49.70
51613;DHT22;37694;51.748;14.326;2023-09-19T01:33:10;22.00;49.60
51613;DHT22;37694;51.748;14.326;2023-09-19T01:35:40;22.10;50.50
51613;DHT22;37694;51.748;14.326;2023-09-19T01:38:08;22.00;49.70
51613;DHT22;37694;51.748;14.326;2023-09-19T01:40:43;21.90;50.90
51613;DHT22;37694;51.748;14.326;2023-09-19T01:43:28;21.80;50.90
51613;DHT22;37694;51.748;14.326;2023-09-19T01:46:30;21.90;52.20
51613;DHT22;37694;51.748;14.326;2023-09-19T01:54:26;22.10;49.60
51613;DHT22;37694;51.748;14.326;2023-09-19T02:00:07;22.10;51.40
51613;DHT22;37694;51.748;14.326;2023-09-19T02:02:37;22.00;51.20
51613;DHT22;37694;51.748;14.326;2023-09-19T02:05:03;22.00;51.90
51613;DHT22;37694;51.748;14.326;2023-09-19T02:07:29;22.10;51.20
51613;DHT22;37694;51.748;14.326;2023-09-19T02:09:57;22.10;50.60
51613;DHT22;37694;51.748;14.326;2023-09-19T02:12:25;22.10;50.20
51613;DHT22;37694;51.748;14.326;2023-09-19T02:14:51;22.10;49.60
51613;DHT22;37694;51.748;14.326;2023-09-19T02:17:17;22.10;50.00
51613;DHT22;37694;51.748;14.326;2023-09-19T02:19:42;22.20;50.70
51613;DHT22;37694;51.748;14.326;2023-09-19T02:22:08;22.20;49.90
51613;DHT22;37694;51.748;14.326;2023-09-19T02:24:36;22.20;49.70
51613;DHT22;37694;51.748;14.326;2023-09-19T02:27:02;22.20;49.30
51613;DHT22;37694;51.748;14.326;2023-09-19T02:29:32;22.20;49.10
51613;DHT22;37694;51.748;14.326;2023-09-19T02:32:00;22.30;50.10
51613;DHT22;37694;51.748;14.326;2023-09-19T02:34:27;22.10;49.40
51613;DHT22;37694;51.748;14.326;2023-09-19T02:36:53;22.00;50.30
51613;DHT22;37694;51.748;14.326;2023-09-19T02:39:20;21.90;50.60
51613;DHT22;37694;51.748;14.326;2023-09-19T02:41:46;22.00;51.40
51613;DHT22;37694;51.748;14.326;2023-09-19T02:44:12;22.00;51.00
51613;DHT22;37694;51.748;14.326;2023-09-19T02:46:37;22.10;50.30
51613;DHT22;37694;51.748;14.326;2023-09-19T02:49:03;22.10;49.60
51613;DHT22;37694;51.748;14.326;2023-09-19T02:51:32;22.20;49.20
51613;DHT22;37694;51.748;14.326;2023-09-19T02:53:59;22.20;49.30
51613;DHT22;37694;51.748;14.326;2023-09-19T02:56:25;22.20;50.40
51613;DHT22;37694;51.748;14.326;2023-09-19T02:58:51;22.20;49.70
51613;DHT22;37694;51.748;14.326;2023-09-19T03:01:17;22.20;49.30
51613;DHT22;37694;51.748;14.326;2023-09-19T03:03:44;22.20;48.80
51613;DHT22;37694;51.748;14.326;2023-09-19T03:06:10;22.20;48.60
51613;DHT22;37694;51.748;14.326;2023-09-19T03:08:39;22.20;49.00
51613;DHT22;37694;51.748;14.326;2023-09-19T03:11:05;22.20;49.60
51613;DHT22;37694;51.748;14.326;2023-09-19T03:13:32;22.20;49.20
51613;DHT22;37694;51.748;14.326;2023-09-19T03:15:58;22.20;48.70
51613;DHT22;37694;51.748;14.326;2023-09-19T03:18:27;22.20;48.30
51613;DHT22;37694;51.748;14.326;2023-09-19T03:20:56;22.20;48.20
51613;DHT22;37694;51.748;14.326;2023-09-19T03:23:22;22.20;49.00
51613;DHT22;37694;51.748;14.326;2023-09-19T03:25:48;22.20;49.30
51613;DHT22;37694;51.748;14.326;2023-09-19T03:28:14;22.20;48.90
51613;DHT22;37694;51.748;14.326;2023-09-19T03:30:41;22.20;48.50
51613;DHT22;37694;51.748;14.326;2023-09-19T03:33:07;22.20;48.10
51613;DHT22;37694;51.748;14.326;2023-09-19T03:35:33;22.20;48.10
51613;DHT22;37694;51.748;14.326;2023-09-19T03:38:00;22.20;49.70
51613;DHT22;37694;51.748;14.326;2023-09-19T03:40:26;22.20;49.00
51613;DHT22;37694;51.748;14.326;2023-09-19T03:42:51;22.20;48.40
51613;DHT22;37694;51.748;14.326;2023-09-19T03:45:17;22.20;48.00
51613;DHT22;37694;51.748;14.326;2023-09-19T03:47:44;22.20;47.90
51613;DHT22;37694;51.748;14.326;2023-09-19T03:50:12;22.20;48.10
51613;DHT22;37694;51.748;14.326;2023-09-19T03:52:40;22.20;49.00
51613;DHT22;37694;51.748;14.326;2023-09-19T03:55:06;22.20;48.70
51613;DHT22;37694;51.748;14.326;2023-09-19T03:57:32;22.20;48.10
51613;DHT22;37694;51.748;14.326;2023-09-19T03:59:58;22.20;47.80
51613;DHT22;37694;51.748;14.326;2023-09-19T04:02:24;22.20;47.90
51613;DHT22;37694;51.748;14.326;2023-09-19T04:04:53;22.20;48.70
51613;DHT22;37694;51.748;14.326;2023-09-19T04:07:19;22.20;51.40
51613;DHT22;37694;51.748;14.326;2023-09-19T04:09:47;22.20;50.80
51613;DHT22;37694;51.748;14.326;2023-09-19T04:12:14;22.20;50.20
51613;DHT22;37694;51.748;14.326;2023-09-19T04:14:42;22.20;49.70
51613;DHT22;37694;51.748;14.326;2023-09-19T04:17:08;22.30;49.90
51613;DHT22;37694;51.748;14.326;2023-09-19T04:19:33;22.30;51.80
51613;DHT22;37694;51.748;14.326;2023-09-19T04:21:59;22.30;50.70
51613;DHT22;37694;51.748;14.326;2023-09-19T04:24:25;22.30;50.20
51613;DHT22;37694;51.748;14.326;2023-09-19T04:26:50;22.30;49.70
51613;DHT22;37694;51.748;14.326;2023-09-19T04:29:16;22.30;49.20
51613;DHT22;37694;51.748;14.326;2023-09-19T04:31:44;22.30;49.40
51613;DHT22;37694;51.748;14.326;2023-09-19T04:34:11;22.30;50.70
51613;DHT22;37694;51.748;14.326;2023-09-19T04:36:43;22.30;52.00
51613;DHT22;37694;51.748;14.326;2023-09-19T04:39:09;22.40;52.80
51613;DHT22;37694;51.748;14.326;2023-09-19T04:41:36;22.40;53.10
51613;DHT22;37694;51.748;14.326;2023-09-19T04:44:06;22.40;53.50
51613;DHT22;37694;51.748;14.326;2023-09-19T04:46:33;22.30;53.90
51613;DHT22;37694;51.748;14.326;2023-09-19T04:48:59;22.40;54.00
51613;DHT22;37694;51.748;14.326;2023-09-19T04:51:24;22.40;54.50
51613;DHT22;37694;51.748;14.326;2023-09-19T04:53:52;22.40;54.80
51613;DHT22;37694;51.748;14.326;2023-09-19T04:56:17;22.40;55.20
51613;DHT22;37694;51.748;14.326;2023-09-19T04:58:44;22.50;55.20
51613;DHT22;37694;51.748;14.326;2023-09-19T05:01:10;22.50;55.40
51613;DHT22;37694;51.748;14.326;2023-09-19T05:03:37;22.60;55.60
51613;DHT22;37694;51.748;14.326;2023-09-19T05:06:03;22.60;54.90
51613;DHT22;37694;51.748;14.326;2023-09-19T05:08:30;22.70;55.00
51613;DHT22;37694;51.748;14.326;2023-09-19T05:10:56;22.70;55.00
51613;DHT22;37694;51.748;14.326;2023-09-19T05:13:22;22.80;55.00
51613;DHT22;37694;51.748;14.326;2023-09-19T05:15:49;22.90;55.20
51613;DHT22;37694;51.748;14.326;2023-09-19T05:18:18;22.90;55.20
51613;DHT22;37694;51.748;14.326;2023-09-19T05:20:44;22.90;55.30
51613;DHT22;37694;51.748;14.326;2023-09-19T05:23:10;23.00;55.40
51613;DHT22;37694;51.748;14.326;2023-09-19T05:25:39;23.00;55.30
51613;DHT22;37694;51.748;14.326;2023-09-19T05:28:09;23.10;55.30
51613;DHT22;37694;51.748;14.326;2023-09-19T05:30:36;23.10;55.40
51613;DHT22;37694;51.748;14.326;2023-09-19T05:33:02;23.10;55.50
51613;DHT22;37694;51.748;14.326;2023-09-19T05:35:29;23.20;55.80
51613;DHT22;37694;51.748;14.326;2023-09-19T05:37:56;23.20;56.10
51613;DHT22;37694;51.748;14.326;2023-09-19T05:40:24;23.20;56.10
51613;DHT22;37694;51.748;14.326;2023-09-19T05:42:50;23.10;54.60
51613;DHT22;37694;51.748;14.326;2023-09-19T05:45:18;22.90;53.60
51613;DHT22;37694;51.748;14.326;2023-09-19T05:47:51;22.60;53.40
51613;DHT22;37694;51.748;14.326;2023-09-19T05:50:21;22.30;54.40
51613;DHT22;37694;51.748;14.326;2023-09-19T05:52:53;22.20;54.10
51613;DHT22;37694;51.748;14.326;2023-09-19T05:55:21;22.10;54.10
51613;DHT22;37694;51.748;14.326;2023-09-19T05:57:52;22.00;54.20
51613;DHT22;37694;51.748;14.326;2023-09-19T06:00:22;21.90;54.20
51613;DHT22;37694;51.748;14.326;2023-09-19T06:02:55;21.80;54.10
51613;DHT22;37694;51.748;14.326;2023-09-19T06:05:23;21.90;56.90
51613;DHT22;37694;51.748;14.326;2023-09-19T06:07:49;22.10;57.40
51613;DHT22;37694;51.748;14.326;2023-09-19T06:10:16;22.20;57.40
51613;DHT22;37694;51.748;14.326;2023-09-19T06:12:43;22.40;57.50
51613;DHT22;37694;51.748;14.326;2023-09-19T06:15:13;22.50;58.40
51613;DHT22;37694;51.748;14.326;2023-09-19T06:17:48;22.60;57.60
51613;DHT22;37694;51.748;14.326;2023-09-19T06:20:14;22.60;57.80
51613;DHT22;37694;51.748;14.326;2023-09-19T06:22:45;22.70;58.00
51613;DHT22;37694;51.748;14.326;2023-09-19T06:25:12;22.70;58.10
51613;DHT22;37694;51.748;14.326;2023-09-19T06:27:48;22.80;58.30
51613;DHT22;37694;51.748;14.326;2023-09-19T06:30:14;22.80;58.50
51613;DHT22;37694;51.748;14.326;2023-09-19T06:32:41;22.80;58.80
51613;DHT22;37694;51.748;14.326;2023-09-19T06:35:13;22.90;57.90
51613;DHT22;37694;51.748;14.326;2023-09-19T06:37:40;22.90;57.40
51613;DHT22;37694;51.748;14.326;2023-09-19T06:40:13;23.00;57.30
51613;DHT22;37694;51.748;14.326;2023-09-19T06:42:46;23.00;57.10
51613;DHT22;37694;51.748;14.326;2023-09-19T06:45:13;23.10;56.80
51613;DHT22;37694;51.748;14.326;2023-09-19T06:47:46;23.10;56.70
51613;DHT22;37694;51.748;14.326;2023-09-19T06:50:21;23.10;56.50
51613;DHT22;37694;51.748;14.326;2023-09-19T06:52:54;23.20;56.40
51613;DHT22;37694;51.748;14.326;2023-09-19T06:55:22;23.20;56.30
51613;DHT22;37694;51.748;14.326;2023-09-19T06:57:54;23.20;56.10
51613;DHT22;37694;51.748;14.326;2023-09-19T07:00:20;23.30;56.10
51613;DHT22;37694;51.748;14.326;2023-09-19T07:03:00;23.30;56.00
51613;DHT22;37694;51.748;14.326;2023-09-19T07:05:30;23.40;55.80
51613;DHT22;37694;51.748;14.326;2023-09-19T07:08:00;23.30;55.90
51613;DHT22;37694;51.748;14.326;2023-09-19T07:10:26;23.40;55.80
51613;DHT22;37694;51.748;14.326;2023-09-19T07:13:03;23.40;55.80
51613;DHT22;37694;51.748;14.326;2023-09-19T07:15:32;23.40;55.60
51613;DHT22;37694;51.748;14.326;2023-09-19T07:17:59;23.40;55.50
51613;DHT22;37694;51.748;14.326;2023-09-19T07:20:26;23.40;56.20
51613;DHT22;37694;51.748;14.326;2023-09-19T07:22:53;23.50;55.30
51613;DHT22;37694;51.748;14.326;2023-09-19T07:25:21;23.50;55.40
51613;DHT22;37694;51.748;14.326;2023-09-19T07:27:46;23.50;55.20
51613;DHT22;37694;51.748;14.326;2023-09-19T07:30:12;23.50;55.10
51613;DHT22;37694;51.748;14.326;2023-09-19T07:32:39;23.60;55.10
51613;DHT22;37694;51.748;14.326;2023-09-19T07:35:06;23.60;55.00
51613;DHT22;37694;51.748;14.326;2023-09-19T07:37:32;23.60;55.00
51613;DHT22;37694;51.748;14.326;2023-09-19T07:40:04;23.60;54.90
51613;DHT22;37694;51.748;14.326;2023-09-19T07:42:35;23.60;54.80
51613;DHT22;37694;51.748;14.326;2023-09-19T07:45:02;23.60;54.70
51613;DHT22;37694;51.748;14.326;2023-09-19T07:47:28;23.60;54.60
51613;DHT22;37694;51.748;14.326;2023-09-19T07:49:55;23.70;54.60
51613;DHT22;37694;51.748;14.326;2023-09-19T07:52:21;23.70;54.60
51613;DHT22;37694;51.748;14.326;2023-09-19T07:54:48;23.70;54.40
51613;DHT22;37694;51.748;14.326;2023-09-19T07:57:15;23.70;54.40
51613;DHT22;37694;51.748;14.326;2023-09-19T07:59:41;23.80;54.30
51613;DHT22;37694;51.748;14.326;2023-09-19T08:02:08;23.70;54.30
51613;DHT22;37694;51.748;14.326;2023-09-19T08:04:35;23.80;54.20
51613;DHT22;37694;51.748;14.326;2023-09-19T08:07:01;23.80;54.30
51613;DHT22;37694;51.748;14.326;2023-09-19T08:09:29;23.80;54.10
51613;DHT22;37694;51.748;14.326;2023-09-19T08:11:59;23.80;54.10
51613;DHT22;37694;51.748;14.326;2023-09-19T08:14:28;23.90;54.10
51613;DHT22;37694;51.748;14.326;2023-09-19T08:16:58;23.90;54.00
51613;DHT22;37694;51.748;14.326;2023-09-19T08:19:24;23.90;53.90
51613;DHT22;37694;51.748;14.326;2023-09-19T08:21:55;23.90;53.90
51613;DHT22;37694;51.748;14.326;2023-09-19T08:24:24;24.00;53.80
51613;DHT22;37694;51.748;14.326;2023-09-19T08:26:52;24.00;53.80
51613;DHT22;37694;51.748;14.326;2023-09-19T08:29:20;24.00;53.70
51613;DHT22;37694;51.748;14.326;2023-09-19T08:31:45;24.00;53.60
51613;DHT22;37694;51.748;14.326;2023-09-19T08:34:15;24.10;53.60
51613;DHT22;37694;51.748;14.326;2023-09-19T08:36:41;24.10;53.50
51613;DHT22;37694;51.748;14.326;2023-09-19T08:39:08;24.10;53.50
51613;DHT22;37694;51.748;14.326;2023-09-19T08:41:34;24.10;53.40
51613;DHT22;37694;51.748;14.326;2023-09-19T08:44:00;24.10;53.40
51613;DHT22;37694;51.748;14.326;2023-09-19T08:46:30;24.10;53.30
51613;DHT22;37694;51.748;14.326;2023-09-19T08:49:12;24.20;53.40
51613;DHT22;37694;51.748;14.326;2023-09-19T08:51:45;24.20;53.20
51613;DHT22;37694;51.748;14.326;2023-09-19T08:54:24;24.20;53.30
51613;DHT22;37694;51.748;14.326;2023-09-19T08:56:54;24.20;53.20
51613;DHT22;37694;51.748;14.326;2023-09-19T08:59:23;24.30;53.20
51613;DHT22;37694;51.748;14.326;2023-09-19T09:01:53;24.20;53.10
51613;DHT22;37694;51.748;14.326;2023-09-19T09:04:19;24.30;53.10
51613;DHT22;37694;51.748;14.326;2023-09-19T09:06:47;24.30;53.10
51613;DHT22;37694;51.748;14.326;2023-09-19T09:09:18;24.30;53.10
51613;DHT22;37694;51.748;14.326;2023-09-19T09:11:45;24.30;53.10
51613;DHT22;37694;51.748;14.326;2023-09-19T09:14:13;24.30;53.00
51613;DHT22;37694;51.748;14.326;2023-09-19T09:16:39;24.30;52.90
51613;DHT22;37694;51.748;14.326;2023-09-19T09:19:05;24.30;52.90
51613;DHT22;37694;51.748;14.326;2023-09-19T09:21:31;24.40;53.00
51613;DHT22;37694;51.748;14.326;2023-09-19T09:26:57;24.40;52.80
51613;DHT22;37694;51.748;14.326;2023-09-19T09:29:42;24.40;53.00
51613;DHT22;37694;51.748;14.326;2023-09-19T09:32:30;24.40;52.70
51613;DHT22;37694;51.748;14.326;2023-09-19T09:35:00;24.40;52.80
51613;DHT22;37694;51.748;14.326;2023-09-19T09:37:27;24.40;52.90
51613;DHT22;37694;51.748;14.326;2023-09-19T09:40:01;24.40;52.90
51613;DHT22;37694;51.748;14.326;2023-09-19T09:42:41;24.50;52.90
51613;DHT22;37694;51.748;14.326;2023-09-19T09:45:21;24.50;52.90
51613;DHT22;37694;51.748;14.326;2023-09-19T09:48:16;24.50;52.90
51613;DHT22;37694;51.748;14.326;2023-09-19T09:50:57;24.50;52.90
51613;DHT22;37694;51.748;14.326;2023-09-19T09:53:28;24.50;52.90
51613;DHT22;37694;51.748;14.326;2023-09-19T09:56:09;24.50;53.80
51613;DHT22;37694;51.748;14.326;2023-09-19T09:58:50;24.60;52.70
51613;DHT22;37694;51.748;14.326;2023-09-19T10:01:17;24.50;52.80
51613;DHT22;37694;51.748;14.326;2023-09-19T10:04:15;24.60;53.00
51613;DHT22;37694;51.748;14.326;2023-09-19T10:06:54;24.60;53.00
51613;DHT22;37694;51.748;14.326;2023-09-19T10:09:20;24.60;52.90
51613;DHT22;37694;51.748;14.326;2023-09-19T10:12:07;24.60;52.80
51613;DHT22;37694;51.748;14.326;2023-09-19T10:14:38;24.70;52.80
51613;DHT22;37694;51.748;14.326;2023-09-19T10:17:10;24.70;52.80
51613;DHT22;37694;51.748;14.326;2023-09-19T10:19:50;24.70;52.80
51613;DHT22;37694;51.748;14.326;2023-09-19T10:22:23;24.70;52.80
51613;DHT22;37694;51.748;14.326;2023-09-19T10:24:59;24.70;52.90
51613;DHT22;37694;51.748;14.326;2023-09-19T10:27:26;24.80;53.00
51613;DHT22;37694;51.748;14.326;2023-09-19T10:29:52;24.80;53.10
51613;DHT22;37694;51.748;14.326;2023-09-19T10:32:22;24.90;53.00
51613;DHT22;37694;51.748;14.326;2023-09-19T10:34:49;24.90;53.00
51613;DHT22;37694;51.748;14.326;2023-09-19T10:37:16;24.90;53.10
51613;DHT22;37694;51.748;14.326;2023-09-19T10:39:52;24.90;53.00
51613;DHT22;37694;51.748;14.326;2023-09-19T10:42:22;24.90;52.80
51613;DHT22;37694;51.748;14.326;2023-09-19T10:44:52;24.90;53.00
51613;DHT22;37694;51.748;14.326;2023-09-19T10:47:20;25.00;52.90
51613;DHT22;37694;51.748;14.326;2023-09-19T10:49:49;25.00;52.80
51613;DHT22;37694;51.748;14.326;2023-09-19T10:52:24;25.00;52.80
51613;DHT22;37694;51.748;14.326;2023-09-19T10:54:56;25.10;52.80
51613;DHT22;37694;51.748;14.326;2023-09-19T10:57:24;25.10;52.50
51613;DHT22;37694;51.748;14.326;2023-09-19T11:00:06;25.10;52.70
51613;DHT22;37694;51.748;14.326;2023-09-19T11:05:34;25.10;52.50
51613;DHT22;37694;51.748;14.326;2023-09-19T11:08:00;25.10;52.50
51613;DHT22;37694;51.748;14.326;2023-09-19T11:10:50;25.10;52.50
51613;DHT22;37694;51.748;14.326;2023-09-19T11:13:30;25.20;52.50
51613;DHT22;37694;51.748;14.326;2023-09-19T11:16:03;25.20;52.50
51613;DHT22;37694;51.748;14.326;2023-09-19T11:26:48;25.20;51.90
51613;DHT22;37694;51.748;14.326;2023-09-19T11:29:30;25.20;52.20
51613;DHT22;37694;51.748;14.326;2023-09-19T11:31:57;25.20;51.90
51613;DHT22;37694;51.748;14.326;2023-09-19T11:34:44;25.20;52.00
51613;DHT22;37694;51.748;14.326;2023-09-19T11:39:50;25.30;51.80
51613;DHT22;37694;51.748;14.326;2023-09-19T11:42:46;25.20;51.80
51613;DHT22;37694;51.748;14.326;2023-09-19T11:48:14;25.30;51.60
51613;DHT22;37694;51.748;14.326;2023-09-19T11:50:42;25.20;51.70
51613;DHT22;37694;51.748;14.326;2023-09-19T11:53:13;25.30;51.60
51613;DHT22;37694;51.748;14.326;2023-09-19T11:55:42;25.30;51.60
51613;DHT22;37694;51.748;14.326;2023-09-19T11:58:09;25.30;51.50
51613;DHT22;37694;51.748;14.326;2023-09-19T12:00:38;25.30;51.40
51613;DHT22;37694;51.748;14.326;2023-09-19T12:03:10;25.30;51.30
51613;DHT22;37694;51.748;14.326;2023-09-19T12:05:47;25.30;51.30
51613;DHT22;37694;51.748;14.326;2023-09-19T12:08:15;25.40;51.40
51613;DHT22;37694;51.748;14.326;2023-09-19T12:10:50;25.40;51.40
51613;DHT22;37694;51.748;14.326;2023-09-19T12:13:19;25.40;51.40
51613;DHT22;37694;51.748;14.326;2023-09-19T12:15:46;25.40;51.40
51613;DHT22;37694;51.748;14.326;2023-09-19T12:18:30;25.40;51.30
51613;DHT22;37694;51.748;14.326;2023-09-19T12:20:56;25.40;51.30
51613;DHT22;37694;51.748;14.326;2023-09-19T12:23:23;25.40;51.30
51613;DHT22;37694;51.748;14.326;2023-09-19T12:25:51;25.50;51.30
51613;DHT22;37694;51.748;14.326;2023-09-19T12:28:19;25.50;51.40
51613;DHT22;37694;51.748;14.326;2023-09-19T12:30:47;25.50;51.20
51613;DHT22;37694;51.748;14.326;2023-09-19T12:33:19;25.50;51.20
51613;DHT22;37694;51.748;14.326;2023-09-19T12:35:51;25.50;51.10
51613;DHT22;37694;51.748;14.326;2023-09-19T12:38:28;25.50;51.10
51613;DHT22;37694;51.748;14.326;2023-09-19T12:40:57;25.50;51.10
51613;DHT22;37694;51.748;14.326;2023-09-19T12:43:28;25.50;51.00
51613;DHT22;37694;51.748;14.326;2023-09-19T12:45:53;25.50;51.10
51613;DHT22;37694;51.748;14.326;2023-09-19T12:48:24;25.50;50.90
51613;DHT22;37694;51.748;14.326;2023-09-19T12:54:18;25.60;50.80
51613;DHT22;37694;51.748;14.326;2023-09-19T12:56:45;25.50;51.00
51613;DHT22;37694;51.748;14.326;2023-09-19T12:59:13;25.50;50.90
51613;DHT22;37694;51.748;14.326;2023-09-19T13:01:40;25.50;50.80
51613;DHT22;37694;51.748;14.326;2023-09-19T13:06:44;25.60;50.80
51613;DHT22;37694;51.748;14.326;2023-09-19T13:09:10;25.60;50.80
51613;DHT22;37694;51.748;14.326;2023-09-19T13:11:37;25.60;50.70
51613;DHT22;37694;51.748;14.326;2023-09-19T13:17:05;25.60;50.50
51613;DHT22;37694;51.748;14.326;2023-09-19T13:19:48;25.70;50.60
51613;DHT22;37694;51.748;14.326;2023-09-19T13:22:44;25.60;50.60
51613;DHT22;37694;51.748;14.326;2023-09-19T13:25:16;25.60;50.50
51613;DHT22;37694;51.748;14.326;2023-09-19T13:27:47;25.60;50.60
51613;DHT22;37694;51.748;14.326;2023-09-19T13:30:20;25.60;50.50
51613;DHT22;37694;51.748;14.326;2023-09-19T13:32:47;25.70;50.60
51613;DHT22;37694;51.748;14.326;2023-09-19T13:35:16;25.60;50.50
51613;DHT22;37694;51.748;14.326;2023-09-19T13:37:42;25.70;50.50
51613;DHT22;37694;51.748;14.326;2023-09-19T13:40:09;25.70;50.40
51613;DHT22;37694;51.748;14.326;2023-09-19T13:42:36;25.70;50.50
51613;DHT22;37694;51.748;14.326;2023-09-19T13:45:02;25.70;50.40
51613;DHT22;37694;51.748;14.326;2023-09-19T13:47:30;25.70;50.40
51613;DHT22;37694;51.748;14.326;2023-09-19T13:49:56;25.70;50.40
51613;DHT22;37694;51.748;14.326;2023-09-19T13:52:22;25.70;50.40
51613;DHT22;37694;51.748;14.326;2023-09-19T13:54:51;25.70;50.40
51613;DHT22;37694;51.748;14.326;2023-09-19T13:57:18;25.70;50.40
51613;DHT22;37694;51.748;14.326;2023-09-19T13:59:44;25.70;50.30
51613;DHT22;37694;51.748;14.326;2023-09-19T14:02:10;25.70;50.30
51613;DHT22;37694;51.748;14.326;2023-09-19T14:04:35;25.70;50.30
51613;DHT22;37694;51.748;14.326;2023-09-19T14:07:01;25.70;50.30
51613;DHT22;37694;51.748;14.326;2023-09-19T14:09:27;25.70;50.30
51613;DHT22;37694;51.748;14.326;2023-09-19T14:11:53;25.70;50.20
51613;DHT22;37694;51.748;14.326;2023-09-19T14:14:19;25.70;50.20
51613;DHT22;37694;51.748;14.326;2023-09-19T14:16:49;25.70;50.10
51613;DHT22;37694;51.748;14.326;2023-09-19T14:19:14;25.70;50.10
51613;DHT22;37694;51.748;14.326;2023-09-19T14:21:42;25.70;50.10
51613;DHT22;37694;51.748;14.326;2023-09-19T14:24:08;25.80;50.20
51613;DHT22;37694;51.748;14.326;2023-09-19T14:26:38;25.80;50.10
51613;DHT22;37694;51.748;14.326;2023-09-19T14:29:04;25.80;50.10
51613;DHT22;37694;51.748;14.326;2023-09-19T14:31:33;25.80;50.20
51613;DHT22;37694;51.748;14.326;2023-09-19T14:33:59;25.70;50.10
51613;DHT22;37694;51.748;14.326;2023-09-19T14:36:25;25.80;50.00
51613;DHT22;37694;51.748;14.326;2023-09-19T14:38:54;25.80;50.00
51613;DHT22;37694;51.748;14.326;2023-09-19T14:41:20;25.80;50.00
51613;DHT22;37694;51.748;14.326;2023-09-19T14:43:46;25.80;50.00
51613;DHT22;37694;51.748;14.326;2023-09-19T14:46:12;25.80;50.00
51613;DHT22;37694;51.748;14.326;2023-09-19T14:48:39;25.80;50.00
51613;DHT22;37694;51.748;14.326;2023-09-19T14:51:07;25.80;50.00
51613;DHT22;37694;51.748;14.326;2023-09-19T14:53:37;25.80;50.00
51613;DHT22;37694;51.748;14.326;2023-09-19T14:56:04;25.80;50.00
51613;DHT22;37694;51.748;14.326;2023-09-19T14:58:31;25.70;49.90
51613;DHT22;37694;51.748;14.326;2023-09-19T15:01:12;25.80;50.20
51613;DHT22;37694;51.748;14.326;2023-09-19T15:03:39;25.50;48.80
51613;DHT22;37694;51.748;14.326;2023-09-19T15:06:07;25.20;48.70
51613;DHT22;37694;51.748;14.326;2023-09-19T15:08:40;24.90;50.00
51613;DHT22;37694;51.748;14.326;2023-09-19T15:11:11;24.70;51.20
51613;DHT22;37694;51.748;14.326;2023-09-19T15:13:38;24.50;52.00
51613;DHT22;37694;51.748;14.326;2023-09-19T15:16:05;24.50;52.30
51613;DHT22;37694;51.748;14.326;2023-09-19T15:18:34;24.40;53.30
51613;DHT22;37694;51.748;14.326;2023-09-19T15:21:03;24.20;54.10
51613;DHT22;37694;51.748;14.326;2023-09-19T15:23:33;24.10;54.60
51613;DHT22;37694;51.748;14.326;2023-09-19T15:26:03;24.00;55.20
51613;DHT22;37694;51.748;14.326;2023-09-19T15:28:30;23.90;55.50
51613;DHT22;37694;51.748;14.326;2023-09-19T15:31:08;23.90;55.70
51613;DHT22;37694;51.748;14.326;2023-09-19T15:33:35;23.80;56.00
51613;DHT22;37694;51.748;14.326;2023-09-19T15:36:11;23.70;56.20
51613;DHT22;37694;51.748;14.326;2023-09-19T15:39:00;23.70;56.20
51613;DHT22;37694;51.748;14.326;2023-09-19T15:43:53;23.60;56.60
51613;DHT22;37694;51.748;14.326;2023-09-19T15:46:20;23.50;56.60
51613;DHT22;37694;51.748;14.326;2023-09-19T15:48:46;23.50;56.70
51613;DHT22;37694;51.748;14.326;2023-09-19T15:51:12;23.50;56.90
51613;DHT22;37694;51.748;14.326;2023-09-19T15:53:45;23.40;57.00
51613;DHT22;37694;51.748;14.326;2023-09-19T15:56:12;23.40;57.00
51613;DHT22;37694;51.748;14.326;2023-09-19T15:58:41;23.40;57.10
51613;DHT22;37694;51.748;14.326;2023-09-19T16:01:09;23.40;57.50
51613;DHT22;37694;51.748;14.326;2023-09-19T16:03:38;23.30;57.50
51613;DHT22;37694;51.748;14.326;2023-09-19T16:06:12;23.30;57.60
51613;DHT22;37694;51.748;14.326;2023-09-19T16:08:41;23.30;57.60
51613;DHT22;37694;51.748;14.326;2023-09-19T16:11:07;23.20;58.10
51613;DHT22;37694;51.748;14.326;2023-09-19T16:13:34;23.20;58.40
51613;DHT22;37694;51.748;14.326;2023-09-19T16:16:00;23.20;58.20
51613;DHT22;37694;51.748;14.326;2023-09-19T16:18:26;23.20;58.30
51613;DHT22;37694;51.748;14.326;2023-09-19T16:20:52;23.30;58.90